Terminal Aerodrome Forecast
Issued by NWS

Home | Current Version | Previous Version | Text Only | Print | Product List | Glossary On
Versions: 1 2 3 4 5 6 7 8 9 10 11 12 13 14 15 16
000
FTUS46 KMFR 010532
TAFRBG
TAF
KRBG 010532Z 0106/0206 VRB03KT P6SM SCT060 BKN150
     FM011700 18008KT P6SM VCSH SCT025 OVC050
     FM012000 20012G18KT P6SM -SHRA SCT025 OVC060
     FM020100 22005KT P6SM -SHRA SCT025 OVC060=

USA.gov is the U.S. government's official web portal to all federal, state and local government web resources and services.